sensor_id;sensor_type;location;lat;lon;timestamp;P1;durP1;ratioP1;P2;durP2;ratioP2
1765;SDS011;880;52.452;8.656;2024-01-30T00:01:03;11.23;;;10.07;;
1765;SDS011;880;52.452;8.656;2024-01-30T00:03:30;10.52;;;9.57;;
1765;SDS011;880;52.452;8.656;2024-01-30T00:05:57;11.40;;;10.15;;
1765;SDS011;880;52.452;8.656;2024-01-30T00:08:25;11.55;;;10.07;;
1765;SDS011;880;52.452;8.656;2024-01-30T00:10:53;11.07;;;10.07;;
1765;SDS011;880;52.452;8.656;2024-01-30T00:13:20;11.00;;;9.95;;
1765;SDS011;880;52.452;8.656;2024-01-30T00:15:47;12.00;;;10.13;;
1765;SDS011;880;52.452;8.656;2024-01-30T00:18:14;13.55;;;10.63;;
1765;SDS011;880;52.452;8.656;2024-01-30T00:23:12;10.90;;;9.85;;
1765;SDS011;880;52.452;8.656;2024-01-30T00:25:39;9.98;;;8.98;;
1765;SDS011;880;52.452;8.656;2024-01-30T00:28:06;10.52;;;9.52;;
1765;SDS011;880;52.452;8.656;2024-01-30T00:30:33;10.65;;;9.55;;
1765;SDS011;880;52.452;8.656;2024-01-30T00:33:00;11.90;;;10.55;;
1765;SDS011;880;52.452;8.656;2024-01-30T00:35:27;13.23;;;10.98;;
1765;SDS011;880;52.452;8.656;2024-01-30T00:37:55;10.70;;;9.77;;
1765;SDS011;880;52.452;8.656;2024-01-30T00:40:23;11.52;;;10.52;;
1765;SDS011;880;52.452;8.656;2024-01-30T00:42:50;14.77;;;11.00;;
1765;SDS011;880;52.452;8.656;2024-01-30T00:45:17;12.10;;;10.23;;
1765;SDS011;880;52.452;8.656;2024-01-30T00:47:45;11.02;;;9.98;;
1765;SDS011;880;52.452;8.656;2024-01-30T00:50:12;10.90;;;9.82;;
1765;SDS011;880;52.452;8.656;2024-01-30T00:52:39;11.10;;;8.82;;
1765;SDS011;880;52.452;8.656;2024-01-30T00:55:07;10.88;;;9.88;;
1765;SDS011;880;52.452;8.656;2024-01-30T00:57:34;11.10;;;10.02;;
1765;SDS011;880;52.452;8.656;2024-01-30T01:00:02;10.02;;;9.13;;
1765;SDS011;880;52.452;8.656;2024-01-30T01:02:32;11.38;;;9.40;;
1765;SDS011;880;52.452;8.656;2024-01-30T01:07:52;10.45;;;9.43;;
1765;SDS011;880;52.452;8.656;2024-01-30T01:10:19;11.98;;;9.80;;
1765;SDS011;880;52.452;8.656;2024-01-30T01:12:48;12.75;;;11.43;;
1765;SDS011;880;52.452;8.656;2024-01-30T01:15:16;10.68;;;9.68;;
1765;SDS011;880;52.452;8.656;2024-01-30T01:17:43;11.70;;;9.73;;
1765;SDS011;880;52.452;8.656;2024-01-30T01:20:10;11.00;;;10.18;;
1765;SDS011;880;52.452;8.656;2024-01-30T01:22:38;13.13;;;10.18;;
1765;SDS011;880;52.452;8.656;2024-01-30T01:25:05;12.73;;;11.52;;
1765;SDS011;880;52.452;8.656;2024-01-30T01:27:34;11.38;;;10.25;;
1765;SDS011;880;52.452;8.656;2024-01-30T01:30:08;10.52;;;9.63;;
1765;SDS011;880;52.452;8.656;2024-01-30T01:32:40;13.05;;;10.02;;
1765;SDS011;880;52.452;8.656;2024-01-30T01:35:15;10.00;;;9.25;;
1765;SDS011;880;52.452;8.656;2024-01-30T01:37:42;14.00;;;9.95;;
1765;SDS011;880;52.452;8.656;2024-01-30T01:40:09;12.35;;;10.52;;
1765;SDS011;880;52.452;8.656;2024-01-30T01:42:36;10.60;;;9.80;;
1765;SDS011;880;52.452;8.656;2024-01-30T01:45:04;10.20;;;8.80;;
1765;SDS011;880;52.452;8.656;2024-01-30T01:47:31;11.65;;;10.48;;
1765;SDS011;880;52.452;8.656;2024-01-30T01:49:58;10.48;;;9.57;;
1765;SDS011;880;52.452;8.656;2024-01-30T01:52:26;15.30;;;11.38;;
1765;SDS011;880;52.452;8.656;2024-01-30T01:54:53;10.60;;;9.60;;
1765;SDS011;880;52.452;8.656;2024-01-30T01:57:20;11.30;;;10.05;;
1765;SDS011;880;52.452;8.656;2024-01-30T01:59:48;12.07;;;10.98;;
1765;SDS011;880;52.452;8.656;2024-01-30T02:02:15;10.88;;;9.98;;
1765;SDS011;880;52.452;8.656;2024-01-30T02:04:45;11.95;;;10.90;;
1765;SDS011;880;52.452;8.656;2024-01-30T02:07:12;11.35;;;10.38;;
1765;SDS011;880;52.452;8.656;2024-01-30T02:09:40;10.77;;;9.65;;
1765;SDS011;880;52.452;8.656;2024-01-30T02:12:07;10.60;;;9.60;;
1765;SDS011;880;52.452;8.656;2024-01-30T02:14:43;10.68;;;9.75;;
1765;SDS011;880;52.452;8.656;2024-01-30T02:17:15;10.65;;;9.60;;
1765;SDS011;880;52.452;8.656;2024-01-30T02:19:43;10.57;;;9.48;;
1765;SDS011;880;52.452;8.656;2024-01-30T02:22:10;11.07;;;10.00;;
1765;SDS011;880;52.452;8.656;2024-01-30T02:24:38;16.05;;;10.15;;
1765;SDS011;880;52.452;8.656;2024-01-30T02:27:05;13.65;;;12.38;;
1765;SDS011;880;52.452;8.656;2024-01-30T02:29:32;14.23;;;9.40;;
1765;SDS011;880;52.452;8.656;2024-01-30T02:31:59;10.90;;;9.77;;
1765;SDS011;880;52.452;8.656;2024-01-30T02:34:26;10.85;;;9.75;;
1765;SDS011;880;52.452;8.656;2024-01-30T02:36:53;11.27;;;10.00;;
1765;SDS011;880;52.452;8.656;2024-01-30T02:39:20;10.07;;;9.20;;
1765;SDS011;880;52.452;8.656;2024-01-30T02:41:47;11.20;;;8.52;;
1765;SDS011;880;52.452;8.656;2024-01-30T02:44:14;10.35;;;9.13;;
1765;SDS011;880;52.452;8.656;2024-01-30T02:46:41;11.27;;;10.15;;
1765;SDS011;880;52.452;8.656;2024-01-30T02:49:08;14.75;;;9.55;;
1765;SDS011;880;52.452;8.656;2024-01-30T02:51:35;10.20;;;9.25;;
1765;SDS011;880;52.452;8.656;2024-01-30T02:54:02;13.57;;;9.98;;
1765;SDS011;880;52.452;8.656;2024-01-30T02:56:29;14.05;;;12.90;;
1765;SDS011;880;52.452;8.656;2024-01-30T02:58:57;10.85;;;9.93;;
1765;SDS011;880;52.452;8.656;2024-01-30T03:01:24;10.65;;;8.85;;
1765;SDS011;880;52.452;8.656;2024-01-30T03:03:51;10.48;;;9.48;;
1765;SDS011;880;52.452;8.656;2024-01-30T03:06:19;12.95;;;10.15;;
1765;SDS011;880;52.452;8.656;2024-01-30T03:08:46;13.38;;;10.13;;
1765;SDS011;880;52.452;8.656;2024-01-30T03:11:13;10.07;;;9.15;;
1765;SDS011;880;52.452;8.656;2024-01-30T03:13:40;12.20;;;11.00;;
1765;SDS011;880;52.452;8.656;2024-01-30T03:16:08;10.82;;;9.73;;
1765;SDS011;880;52.452;8.656;2024-01-30T03:18:35;11.75;;;9.93;;
1765;SDS011;880;52.452;8.656;2024-01-30T03:21:05;12.02;;;10.75;;
1765;SDS011;880;52.452;8.656;2024-01-30T03:23:32;14.43;;;12.93;;
1765;SDS011;880;52.452;8.656;2024-01-30T03:25:59;11.35;;;10.20;;
1765;SDS011;880;52.452;8.656;2024-01-30T03:28:26;11.73;;;10.52;;
1765;SDS011;880;52.452;8.656;2024-01-30T03:30:53;10.63;;;9.63;;
1765;SDS011;880;52.452;8.656;2024-01-30T03:33:20;11.70;;;10.70;;
1765;SDS011;880;52.452;8.656;2024-01-30T03:35:47;11.13;;;9.98;;
1765;SDS011;880;52.452;8.656;2024-01-30T03:38:14;10.60;;;9.45;;
1765;SDS011;880;52.452;8.656;2024-01-30T03:40:41;13.27;;;10.95;;
1765;SDS011;880;52.452;8.656;2024-01-30T03:43:08;11.80;;;9.90;;
1765;SDS011;880;52.452;8.656;2024-01-30T03:45:35;10.63;;;9.52;;
1765;SDS011;880;52.452;8.656;2024-01-30T03:48:02;11.32;;;10.20;;
1765;SDS011;880;52.452;8.656;2024-01-30T03:50:29;11.38;;;10.15;;
1765;SDS011;880;52.452;8.656;2024-01-30T03:52:56;11.27;;;9.35;;
1765;SDS011;880;52.452;8.656;2024-01-30T03:55:23;10.25;;;9.25;;
1765;SDS011;880;52.452;8.656;2024-01-30T03:57:50;10.75;;;9.50;;
1765;SDS011;880;52.452;8.656;2024-01-30T04:00:17;11.13;;;9.73;;
1765;SDS011;880;52.452;8.656;2024-01-30T04:02:45;12.43;;;11.38;;
1765;SDS011;880;52.452;8.656;2024-01-30T04:05:12;11.30;;;10.30;;
1765;SDS011;880;52.452;8.656;2024-01-30T04:07:39;12.10;;;10.38;;
1765;SDS011;880;52.452;8.656;2024-01-30T04:10:06;10.95;;;10.00;;
1765;SDS011;880;52.452;8.656;2024-01-30T04:12:34;13.20;;;11.00;;
1765;SDS011;880;52.452;8.656;2024-01-30T04:15:01;11.65;;;10.55;;
1765;SDS011;880;52.452;8.656;2024-01-30T04:17:29;14.80;;;12.10;;
1765;SDS011;880;52.452;8.656;2024-01-30T04:19:56;11.15;;;10.13;;
1765;SDS011;880;52.452;8.656;2024-01-30T04:22:23;10.65;;;9.68;;
1765;SDS011;880;52.452;8.656;2024-01-30T04:24:50;13.40;;;10.65;;
1765;SDS011;880;52.452;8.656;2024-01-30T04:27:18;12.05;;;10.95;;
1765;SDS011;880;52.452;8.656;2024-01-30T04:29:45;11.63;;;9.98;;
1765;SDS011;880;52.452;8.656;2024-01-30T04:32:15;12.02;;;9.30;;
1765;SDS011;880;52.452;8.656;2024-01-30T04:34:42;11.38;;;8.95;;
1765;SDS011;880;52.452;8.656;2024-01-30T04:37:09;10.07;;;9.15;;
1765;SDS011;880;52.452;8.656;2024-01-30T04:39:37;11.57;;;10.55;;
1765;SDS011;880;52.452;8.656;2024-01-30T04:42:04;15.27;;;9.50;;
1765;SDS011;880;52.452;8.656;2024-01-30T04:44:34;14.88;;;10.93;;
1765;SDS011;880;52.452;8.656;2024-01-30T04:47:01;10.70;;;9.63;;
1765;SDS011;880;52.452;8.656;2024-01-30T04:49:29;10.38;;;9.43;;
1765;SDS011;880;52.452;8.656;2024-01-30T04:51:57;10.75;;;9.70;;
1765;SDS011;880;52.452;8.656;2024-01-30T04:54:24;12.20;;;11.00;;
1765;SDS011;880;52.452;8.656;2024-01-30T04:56:51;10.10;;;9.15;;
1765;SDS011;880;52.452;8.656;2024-01-30T04:59:18;10.10;;;9.13;;
1765;SDS011;880;52.452;8.656;2024-01-30T05:01:45;12.90;;;10.93;;
1765;SDS011;880;52.452;8.656;2024-01-30T05:04:12;13.40;;;12.27;;
1765;SDS011;880;52.452;8.656;2024-01-30T05:06:43;18.85;;;12.73;;
1765;SDS011;880;52.452;8.656;2024-01-30T05:09:10;13.88;;;11.40;;
1765;SDS011;880;52.452;8.656;2024-01-30T05:11:38;13.50;;;11.27;;
1765;SDS011;880;52.452;8.656;2024-01-30T05:14:06;11.95;;;10.73;;
1765;SDS011;880;52.452;8.656;2024-01-30T05:16:33;12.10;;;11.05;;
1765;SDS011;880;52.452;8.656;2024-01-30T05:19:00;14.68;;;10.57;;
1765;SDS011;880;52.452;8.656;2024-01-30T05:21:29;12.27;;;10.02;;
1765;SDS011;880;52.452;8.656;2024-01-30T05:23:56;11.77;;;10.35;;
1765;SDS011;880;52.452;8.656;2024-01-30T05:26:23;13.32;;;11.93;;
1765;SDS011;880;52.452;8.656;2024-01-30T05:28:50;10.77;;;9.73;;
1765;SDS011;880;52.452;8.656;2024-01-30T05:31:18;14.10;;;12.90;;
1765;SDS011;880;52.452;8.656;2024-01-30T05:33:45;12.65;;;10.73;;
1765;SDS011;880;52.452;8.656;2024-01-30T05:36:12;16.88;;;14.02;;
1765;SDS011;880;52.452;8.656;2024-01-30T05:38:39;20.52;;;12.57;;
1765;SDS011;880;52.452;8.656;2024-01-30T05:41:07;20.63;;;12.57;;
1765;SDS011;880;52.452;8.656;2024-01-30T05:43:35;20.25;;;14.93;;
1765;SDS011;880;52.452;8.656;2024-01-30T05:46:02;15.50;;;12.48;;
1765;SDS011;880;52.452;8.656;2024-01-30T05:48:29;14.00;;;12.43;;
1765;SDS011;880;52.452;8.656;2024-01-30T05:50:56;15.43;;;10.55;;
1765;SDS011;880;52.452;8.656;2024-01-30T05:53:23;12.25;;;10.02;;
1765;SDS011;880;52.452;8.656;2024-01-30T05:55:50;12.20;;;9.52;;
1765;SDS011;880;52.452;8.656;2024-01-30T05:58:17;13.65;;;10.07;;
1765;SDS011;880;52.452;8.656;2024-01-30T06:00:44;10.70;;;9.60;;
1765;SDS011;880;52.452;8.656;2024-01-30T06:03:11;11.75;;;10.55;;
1765;SDS011;880;52.452;8.656;2024-01-30T06:05:38;12.90;;;10.55;;
1765;SDS011;880;52.452;8.656;2024-01-30T06:08:05;12.75;;;9.93;;
1765;SDS011;880;52.452;8.656;2024-01-30T06:10:32;12.40;;;10.93;;
1765;SDS011;880;52.452;8.656;2024-01-30T06:12:59;11.95;;;10.93;;
1765;SDS011;880;52.452;8.656;2024-01-30T06:15:27;12.93;;;11.48;;
1765;SDS011;880;52.452;8.656;2024-01-30T06:17:56;14.98;;;12.65;;
1765;SDS011;880;52.452;8.656;2024-01-30T06:20:23;12.15;;;10.98;;
1765;SDS011;880;52.452;8.656;2024-01-30T06:22:50;11.82;;;10.85;;
1765;SDS011;880;52.452;8.656;2024-01-30T06:25:17;15.07;;;11.23;;
1765;SDS011;880;52.452;8.656;2024-01-30T06:27:44;12.18;;;11.02;;
1765;SDS011;880;52.452;8.656;2024-01-30T06:30:11;12.80;;;11.32;;
1765;SDS011;880;52.452;8.656;2024-01-30T06:32:38;12.20;;;10.98;;
1765;SDS011;880;52.452;8.656;2024-01-30T06:35:06;12.02;;;11.10;;
1765;SDS011;880;52.452;8.656;2024-01-30T06:37:33;14.95;;;13.45;;
1765;SDS011;880;52.452;8.656;2024-01-30T06:40:00;12.82;;;11.50;;
1765;SDS011;880;52.452;8.656;2024-01-30T06:42:27;13.27;;;12.05;;
1765;SDS011;880;52.452;8.656;2024-01-30T06:44:54;12.75;;;10.77;;
1765;SDS011;880;52.452;8.656;2024-01-30T06:47:21;13.02;;;11.70;;
1765;SDS011;880;52.452;8.656;2024-01-30T06:49:48;12.77;;;11.63;;
1765;SDS011;880;52.452;8.656;2024-01-30T06:52:16;12.10;;;10.65;;
1765;SDS011;880;52.452;8.656;2024-01-30T06:54:43;12.07;;;10.68;;
1765;SDS011;880;52.452;8.656;2024-01-30T06:57:10;11.55;;;10.43;;
1765;SDS011;880;52.452;8.656;2024-01-30T06:59:38;11.48;;;10.40;;
1765;SDS011;880;52.452;8.656;2024-01-30T07:02:10;13.18;;;10.63;;
1765;SDS011;880;52.452;8.656;2024-01-30T07:04:37;12.25;;;11.13;;
1765;SDS011;880;52.452;8.656;2024-01-30T07:07:10;12.68;;;11.48;;
1765;SDS011;880;52.452;8.656;2024-01-30T07:09:39;12.95;;;11.82;;
1765;SDS011;880;52.452;8.656;2024-01-30T07:12:07;13.25;;;11.68;;
1765;SDS011;880;52.452;8.656;2024-01-30T07:14:35;12.77;;;11.18;;
1765;SDS011;880;52.452;8.656;2024-01-30T07:17:02;13.57;;;11.50;;
1765;SDS011;880;52.452;8.656;2024-01-30T07:19:29;13.10;;;11.63;;
1765;SDS011;880;52.452;8.656;2024-01-30T07:21:57;15.48;;;11.25;;
1765;SDS011;880;52.452;8.656;2024-01-30T07:24:24;13.27;;;12.07;;
1765;SDS011;880;52.452;8.656;2024-01-30T07:26:51;12.60;;;11.48;;
1765;SDS011;880;52.452;8.656;2024-01-30T07:29:19;13.43;;;12.25;;
1765;SDS011;880;52.452;8.656;2024-01-30T07:31:46;15.27;;;13.75;;
1765;SDS011;880;52.452;8.656;2024-01-30T07:34:13;16.63;;;12.63;;
1765;SDS011;880;52.452;8.656;2024-01-30T07:36:40;15.30;;;13.90;;
1765;SDS011;880;52.452;8.656;2024-01-30T07:39:08;14.63;;;13.18;;
1765;SDS011;880;52.452;8.656;2024-01-30T07:41:36;13.07;;;11.95;;
1765;SDS011;880;52.452;8.656;2024-01-30T07:44:03;14.52;;;13.27;;
1765;SDS011;880;52.452;8.656;2024-01-30T07:46:30;15.02;;;13.90;;
1765;SDS011;880;52.452;8.656;2024-01-30T07:48:57;14.52;;;13.15;;
1765;SDS011;880;52.452;8.656;2024-01-30T07:51:24;14.15;;;12.95;;
1765;SDS011;880;52.452;8.656;2024-01-30T07:53:51;14.43;;;13.05;;
1765;SDS011;880;52.452;8.656;2024-01-30T07:56:19;14.13;;;12.73;;
1765;SDS011;880;52.452;8.656;2024-01-30T07:58:46;13.70;;;12.43;;
1765;SDS011;880;52.452;8.656;2024-01-30T08:01:14;13.48;;;12.15;;
1765;SDS011;880;52.452;8.656;2024-01-30T08:03:42;14.32;;;12.70;;
1765;SDS011;880;52.452;8.656;2024-01-30T08:06:09;14.18;;;12.82;;
1765;SDS011;880;52.452;8.656;2024-01-30T08:08:37;14.75;;;13.23;;
1765;SDS011;880;52.452;8.656;2024-01-30T08:11:04;13.80;;;12.57;;
1765;SDS011;880;52.452;8.656;2024-01-30T08:13:31;14.23;;;13.05;;
1765;SDS011;880;52.452;8.656;2024-01-30T08:15:58;14.80;;;13.70;;
1765;SDS011;880;52.452;8.656;2024-01-30T08:18:27;12.95;;;11.98;;
1765;SDS011;880;52.452;8.656;2024-01-30T08:20:54;13.63;;;12.32;;
1765;SDS011;880;52.452;8.656;2024-01-30T08:23:21;13.52;;;12.32;;
1765;SDS011;880;52.452;8.656;2024-01-30T08:25:48;12.73;;;11.80;;
1765;SDS011;880;52.452;8.656;2024-01-30T08:28:15;14.82;;;13.48;;
1765;SDS011;880;52.452;8.656;2024-01-30T08:30:47;14.27;;;12.68;;
1765;SDS011;880;52.452;8.656;2024-01-30T08:33:14;15.38;;;13.95;;
1765;SDS011;880;52.452;8.656;2024-01-30T08:35:41;14.25;;;12.85;;
1765;SDS011;880;52.452;8.656;2024-01-30T08:38:08;14.25;;;13.10;;
1765;SDS011;880;52.452;8.656;2024-01-30T08:40:35;14.73;;;13.45;;
1765;SDS011;880;52.452;8.656;2024-01-30T08:43:03;14.32;;;13.02;;
1765;SDS011;880;52.452;8.656;2024-01-30T08:45:30;15.45;;;14.07;;
1765;SDS011;880;52.452;8.656;2024-01-30T08:47:57;14.70;;;13.43;;
1765;SDS011;880;52.452;8.656;2024-01-30T08:50:24;15.25;;;13.70;;
1765;SDS011;880;52.452;8.656;2024-01-30T08:52:51;14.85;;;13.75;;
1765;SDS011;880;52.452;8.656;2024-01-30T08:55:18;14.38;;;13.05;;
1765;SDS011;880;52.452;8.656;2024-01-30T08:57:45;16.02;;;14.50;;
1765;SDS011;880;52.452;8.656;2024-01-30T09:00:13;14.23;;;13.10;;
1765;SDS011;880;52.452;8.656;2024-01-30T09:02:40;15.43;;;13.82;;
1765;SDS011;880;52.452;8.656;2024-01-30T09:05:08;13.27;;;12.20;;
1765;SDS011;880;52.452;8.656;2024-01-30T09:07:35;14.35;;;12.98;;
1765;SDS011;880;52.452;8.656;2024-01-30T09:10:02;15.23;;;13.98;;
1765;SDS011;880;52.452;8.656;2024-01-30T09:12:30;16.85;;;15.55;;
1765;SDS011;880;52.452;8.656;2024-01-30T09:14:57;14.07;;;12.77;;
1765;SDS011;880;52.452;8.656;2024-01-30T09:17:24;14.63;;;13.38;;
1765;SDS011;880;52.452;8.656;2024-01-30T09:19:51;15.63;;;13.70;;
1765;SDS011;880;52.452;8.656;2024-01-30T09:22:18;14.00;;;13.02;;
1765;SDS011;880;52.452;8.656;2024-01-30T09:24:45;13.27;;;12.30;;
1765;SDS011;880;52.452;8.656;2024-01-30T09:27:12;13.68;;;12.43;;
1765;SDS011;880;52.452;8.656;2024-01-30T09:29:40;15.15;;;13.75;;
1765;SDS011;880;52.452;8.656;2024-01-30T09:32:07;14.40;;;13.23;;
1765;SDS011;880;52.452;8.656;2024-01-30T09:34:35;14.82;;;13.23;;
1765;SDS011;880;52.452;8.656;2024-01-30T09:37:02;13.20;;;12.20;;
1765;SDS011;880;52.452;8.656;2024-01-30T09:39:29;14.10;;;13.02;;
1765;SDS011;880;52.452;8.656;2024-01-30T09:44:58;16.05;;;14.55;;
1765;SDS011;880;52.452;8.656;2024-01-30T09:47:25;15.32;;;14.32;;
1765;SDS011;880;52.452;8.656;2024-01-30T09:49:53;15.75;;;14.55;;
1765;SDS011;880;52.452;8.656;2024-01-30T09:52:21;16.42;;;15.05;;
1765;SDS011;880;52.452;8.656;2024-01-30T09:54:49;15.23;;;14.05;;
1765;SDS011;880;52.452;8.656;2024-01-30T09:57:17;15.10;;;14.00;;
1765;SDS011;880;52.452;8.656;2024-01-30T09:59:44;14.93;;;13.75;;
1765;SDS011;880;52.452;8.656;2024-01-30T10:02:11;15.32;;;14.13;;
1765;SDS011;880;52.452;8.656;2024-01-30T10:04:39;15.85;;;14.65;;
1765;SDS011;880;52.452;8.656;2024-01-30T10:07:06;15.73;;;14.20;;
1765;SDS011;880;52.452;8.656;2024-01-30T10:09:36;14.40;;;13.48;;
1765;SDS011;880;52.452;8.656;2024-01-30T10:12:04;14.60;;;13.30;;
1765;SDS011;880;52.452;8.656;2024-01-30T10:14:32;13.85;;;12.95;;
1765;SDS011;880;52.452;8.656;2024-01-30T10:17:00;14.25;;;13.15;;
1765;SDS011;880;52.452;8.656;2024-01-30T10:19:32;15.52;;;14.35;;
1765;SDS011;880;52.452;8.656;2024-01-30T10:21:59;14.52;;;13.52;;
1765;SDS011;880;52.452;8.656;2024-01-30T10:24:27;15.13;;;13.65;;
1765;SDS011;880;52.452;8.656;2024-01-30T10:26:55;11.55;;;10.93;;
1765;SDS011;880;52.452;8.656;2024-01-30T10:29:23;13.50;;;12.57;;
1765;SDS011;880;52.452;8.656;2024-01-30T10:32:11;15.73;;;14.60;;
1765;SDS011;880;52.452;8.656;2024-01-30T10:34:37;14.65;;;13.75;;
1765;SDS011;880;52.452;8.656;2024-01-30T10:37:08;15.05;;;14.05;;
1765;SDS011;880;52.452;8.656;2024-01-30T10:39:44;15.00;;;13.75;;
1765;SDS011;880;52.452;8.656;2024-01-30T10:42:13;13.35;;;12.52;;
1765;SDS011;880;52.452;8.656;2024-01-30T10:44:53;13.95;;;12.98;;
1765;SDS011;880;52.452;8.656;2024-01-30T10:47:28;13.55;;;12.77;;
1765;SDS011;880;52.452;8.656;2024-01-30T10:49:56;14.23;;;13.35;;
1765;SDS011;880;52.452;8.656;2024-01-30T10:52:24;14.40;;;13.40;;
1765;SDS011;880;52.452;8.656;2024-01-30T10:54:53;13.98;;;13.15;;
1765;SDS011;880;52.452;8.656;2024-01-30T10:57:25;14.13;;;12.77;;
1765;SDS011;880;52.452;8.656;2024-01-30T10:59:54;13.82;;;12.80;;
1765;SDS011;880;52.452;8.656;2024-01-30T11:02:24;11.95;;;11.10;;
1765;SDS011;880;52.452;8.656;2024-01-30T11:04:58;12.82;;;11.93;;
1765;SDS011;880;52.452;8.656;2024-01-30T11:07:27;12.95;;;11.95;;
1765;SDS011;880;52.452;8.656;2024-01-30T11:12:28;13.20;;;12.40;;
1765;SDS011;880;52.452;8.656;2024-01-30T11:20:26;12.75;;;11.85;;
1765;SDS011;880;52.452;8.656;2024-01-30T11:22:59;14.80;;;13.70;;
1765;SDS011;880;52.452;8.656;2024-01-30T11:25:32;14.70;;;13.52;;
1765;SDS011;880;52.452;8.656;2024-01-30T11:28:00;13.32;;;12.48;;
1765;SDS011;880;52.452;8.656;2024-01-30T11:30:31;14.10;;;12.98;;
1765;SDS011;880;52.452;8.656;2024-01-30T11:33:03;14.40;;;13.48;;
1765;SDS011;880;52.452;8.656;2024-01-30T11:35:32;15.43;;;14.13;;
1765;SDS011;880;52.452;8.656;2024-01-30T11:38:01;17.40;;;16.05;;
1765;SDS011;880;52.452;8.656;2024-01-30T11:40:30;17.65;;;16.17;;
1765;SDS011;880;52.452;8.656;2024-01-30T11:43:00;17.08;;;15.55;;
1765;SDS011;880;52.452;8.656;2024-01-30T11:45:31;17.45;;;15.95;;
1765;SDS011;880;52.452;8.656;2024-01-30T11:47:59;18.35;;;16.70;;
1765;SDS011;880;52.452;8.656;2024-01-30T11:50:30;15.68;;;14.27;;
1765;SDS011;880;52.452;8.656;2024-01-30T11:52:59;13.48;;;12.57;;
1765;SDS011;880;52.452;8.656;2024-01-30T11:55:26;13.48;;;12.68;;
1765;SDS011;880;52.452;8.656;2024-01-30T11:57:59;12.60;;;11.88;;
1765;SDS011;880;52.452;8.656;2024-01-30T12:00:26;12.60;;;11.95;;
1765;SDS011;880;52.452;8.656;2024-01-30T12:02:54;14.57;;;13.63;;
1765;SDS011;880;52.452;8.656;2024-01-30T12:05:22;13.82;;;12.90;;
1765;SDS011;880;52.452;8.656;2024-01-30T12:07:52;14.60;;;13.38;;
1765;SDS011;880;52.452;8.656;2024-01-30T12:10:20;14.20;;;13.30;;
1765;SDS011;880;52.452;8.656;2024-01-30T12:12:51;16.17;;;14.38;;
1765;SDS011;880;52.452;8.656;2024-01-30T12:15:19;13.45;;;12.52;;
1765;SDS011;880;52.452;8.656;2024-01-30T12:17:48;15.05;;;14.05;;
1765;SDS011;880;52.452;8.656;2024-01-30T12:20:18;15.45;;;14.43;;
1765;SDS011;880;52.452;8.656;2024-01-30T12:22:48;13.65;;;12.65;;
1765;SDS011;880;52.452;8.656;2024-01-30T12:25:17;14.38;;;13.48;;
1765;SDS011;880;52.452;8.656;2024-01-30T12:27:47;13.15;;;12.30;;
1765;SDS011;880;52.452;8.656;2024-01-30T12:30:18;14.38;;;13.38;;
1765;SDS011;880;52.452;8.656;2024-01-30T12:32:47;26.80;;;20.52;;
1765;SDS011;880;52.452;8.656;2024-01-30T12:35:17;18.55;;;15.73;;
1765;SDS011;880;52.452;8.656;2024-01-30T12:37:47;15.45;;;14.05;;
1765;SDS011;880;52.452;8.656;2024-01-30T12:40:15;16.80;;;15.38;;
1765;SDS011;880;52.452;8.656;2024-01-30T12:42:45;15.88;;;14.65;;
1765;SDS011;880;52.452;8.656;2024-01-30T12:45:16;15.25;;;13.80;;
1765;SDS011;880;52.452;8.656;2024-01-30T12:47:48;13.70;;;12.73;;
1765;SDS011;880;52.452;8.656;2024-01-30T12:50:15;14.93;;;13.73;;
1765;SDS011;880;52.452;8.656;2024-01-30T12:52:43;16.27;;;15.07;;
1765;SDS011;880;52.452;8.656;2024-01-30T12:55:15;13.95;;;12.85;;
1765;SDS011;880;52.452;8.656;2024-01-30T12:57:43;13.95;;;12.95;;
1765;SDS011;880;52.452;8.656;2024-01-30T13:00:10;15.60;;;14.48;;
1765;SDS011;880;52.452;8.656;2024-01-30T13:02:37;16.55;;;15.15;;
1765;SDS011;880;52.452;8.656;2024-01-30T13:05:05;14.38;;;13.48;;
1765;SDS011;880;52.452;8.656;2024-01-30T13:07:32;14.07;;;13.07;;
1765;SDS011;880;52.452;8.656;2024-01-30T13:10:00;13.65;;;12.55;;
1765;SDS011;880;52.452;8.656;2024-01-30T13:12:30;15.38;;;14.20;;
1765;SDS011;880;52.452;8.656;2024-01-30T13:15:01;16.05;;;14.95;;
1765;SDS011;880;52.452;8.656;2024-01-30T13:17:30;12.75;;;11.82;;
1765;SDS011;880;52.452;8.656;2024-01-30T13:19:57;15.80;;;14.70;;
1765;SDS011;880;52.452;8.656;2024-01-30T13:22:36;14.85;;;13.60;;
1765;SDS011;880;52.452;8.656;2024-01-30T13:25:05;16.42;;;15.27;;
1765;SDS011;880;52.452;8.656;2024-01-30T13:27:33;16.42;;;15.07;;
1765;SDS011;880;52.452;8.656;2024-01-30T13:30:01;16.38;;;15.05;;
1765;SDS011;880;52.452;8.656;2024-01-30T13:32:28;12.95;;;12.10;;
1765;SDS011;880;52.452;8.656;2024-01-30T13:34:55;14.55;;;13.10;;
1765;SDS011;880;52.452;8.656;2024-01-30T13:37:23;15.50;;;14.38;;
1765;SDS011;880;52.452;8.656;2024-01-30T13:39:50;13.70;;;12.90;;
1765;SDS011;880;52.452;8.656;2024-01-30T13:42:17;14.85;;;13.90;;
1765;SDS011;880;52.452;8.656;2024-01-30T13:44:45;17.25;;;15.85;;
1765;SDS011;880;52.452;8.656;2024-01-30T13:47:12;17.70;;;16.15;;
1765;SDS011;880;52.452;8.656;2024-01-30T13:49:39;17.75;;;16.08;;
1765;SDS011;880;52.452;8.656;2024-01-30T13:52:06;18.67;;;16.88;;
1765;SDS011;880;52.452;8.656;2024-01-30T13:54:34;21.67;;;19.52;;
1765;SDS011;880;52.452;8.656;2024-01-30T13:57:01;22.63;;;20.50;;
1765;SDS011;880;52.452;8.656;2024-01-30T13:59:28;22.15;;;20.23;;
1765;SDS011;880;52.452;8.656;2024-01-30T14:01:56;23.63;;;21.25;;
1765;SDS011;880;52.452;8.656;2024-01-30T14:04:23;19.27;;;17.73;;
1765;SDS011;880;52.452;8.656;2024-01-30T14:06:50;19.90;;;17.95;;
1765;SDS011;880;52.452;8.656;2024-01-30T14:09:29;24.75;;;22.35;;
1765;SDS011;880;52.452;8.656;2024-01-30T14:11:59;17.50;;;16.30;;
1765;SDS011;880;52.452;8.656;2024-01-30T14:14:26;17.17;;;15.48;;
1765;SDS011;880;52.452;8.656;2024-01-30T14:16:53;14.98;;;13.80;;
1765;SDS011;880;52.452;8.656;2024-01-30T14:19:20;14.82;;;14.07;;
1765;SDS011;880;52.452;8.656;2024-01-30T14:21:47;15.30;;;14.30;;
1765;SDS011;880;52.452;8.656;2024-01-30T14:24:14;16.55;;;15.18;;
1765;SDS011;880;52.452;8.656;2024-01-30T14:26:41;23.67;;;18.80;;
1765;SDS011;880;52.452;8.656;2024-01-30T14:29:09;15.82;;;14.45;;
1765;SDS011;880;52.452;8.656;2024-01-30T14:31:36;14.60;;;13.63;;
1765;SDS011;880;52.452;8.656;2024-01-30T14:34:03;20.20;;;18.45;;
1765;SDS011;880;52.452;8.656;2024-01-30T14:36:30;20.38;;;18.35;;
1765;SDS011;880;52.452;8.656;2024-01-30T14:38:58;16.60;;;15.20;;
1765;SDS011;880;52.452;8.656;2024-01-30T14:41:25;18.50;;;16.65;;
1765;SDS011;880;52.452;8.656;2024-01-30T14:43:52;18.08;;;15.55;;
1765;SDS011;880;52.452;8.656;2024-01-30T14:46:19;18.45;;;16.38;;
1765;SDS011;880;52.452;8.656;2024-01-30T14:48:47;16.63;;;15.52;;
1765;SDS011;880;52.452;8.656;2024-01-30T14:51:14;15.30;;;14.02;;
1765;SDS011;880;52.452;8.656;2024-01-30T14:53:42;13.65;;;12.70;;
1765;SDS011;880;52.452;8.656;2024-01-30T14:56:09;13.20;;;12.40;;
1765;SDS011;880;52.452;8.656;2024-01-30T14:58:37;16.02;;;14.63;;
1765;SDS011;880;52.452;8.656;2024-01-30T15:01:04;15.60;;;14.52;;
1765;SDS011;880;52.452;8.656;2024-01-30T15:03:31;13.55;;;12.32;;
1765;SDS011;880;52.452;8.656;2024-01-30T15:05:59;16.45;;;15.18;;
1765;SDS011;880;52.452;8.656;2024-01-30T15:08:26;15.60;;;14.50;;
1765;SDS011;880;52.452;8.656;2024-01-30T15:10:53;16.25;;;14.90;;
1765;SDS011;880;52.452;8.656;2024-01-30T15:13:20;13.60;;;12.80;;
1765;SDS011;880;52.452;8.656;2024-01-30T15:15:47;15.60;;;14.55;;
1765;SDS011;880;52.452;8.656;2024-01-30T15:18:14;14.50;;;13.50;;
1765;SDS011;880;52.452;8.656;2024-01-30T15:20:42;14.93;;;13.77;;
1765;SDS011;880;52.452;8.656;2024-01-30T15:23:09;20.00;;;18.17;;
1765;SDS011;880;52.452;8.656;2024-01-30T15:25:36;20.85;;;19.10;;